sensor_id;sensor_type;location;lat;lon;timestamp;temperature;humidity
22544;DHT22;11438;52.044;8.716;2023-11-19T00:01:53;12.00;99.90
22544;DHT22;11438;52.044;8.716;2023-11-19T00:04:18;12.00;99.90
22544;DHT22;11438;52.044;8.716;2023-11-19T00:06:44;12.00;99.90
22544;DHT22;11438;52.044;8.716;2023-11-19T00:09:10;12.00;99.90
22544;DHT22;11438;52.044;8.716;2023-11-19T00:11:35;12.00;99.90
22544;DHT22;11438;52.044;8.716;2023-11-19T00:14:01;12.00;99.90
22544;DHT22;11438;52.044;8.716;2023-11-19T00:16:27;12.00;99.90
22544;DHT22;11438;52.044;8.716;2023-11-19T00:18:53;12.10;99.90
22544;DHT22;11438;52.044;8.716;2023-11-19T00:21:18;12.10;99.90
22544;DHT22;11438;52.044;8.716;2023-11-19T00:23:44;12.10;99.90
22544;DHT22;11438;52.044;8.716;2023-11-19T00:26:09;12.10;99.90
22544;DHT22;11438;52.044;8.716;2023-11-19T00:28:35;12.10;99.90
22544;DHT22;11438;52.044;8.716;2023-11-19T00:31:04;12.20;99.90
22544;DHT22;11438;52.044;8.716;2023-11-19T00:33:29;12.20;99.90
22544;DHT22;11438;52.044;8.716;2023-11-19T00:35:56;12.20;99.90
22544;DHT22;11438;52.044;8.716;2023-11-19T00:38:22;12.20;99.90
22544;DHT22;11438;52.044;8.716;2023-11-19T00:40:47;12.30;99.90
22544;DHT22;11438;52.044;8.716;2023-11-19T00:43:13;12.30;99.90
22544;DHT22;11438;52.044;8.716;2023-11-19T00:45:38;12.30;99.90
22544;DHT22;11438;52.044;8.716;2023-11-19T00:48:04;12.30;99.90
22544;DHT22;11438;52.044;8.716;2023-11-19T00:50:29;12.30;99.90
22544;DHT22;11438;52.044;8.716;2023-11-19T00:52:56;12.30;99.90
22544;DHT22;11438;52.044;8.716;2023-11-19T00:55:22;12.30;99.90
22544;DHT22;11438;52.044;8.716;2023-11-19T00:57:47;12.40;99.90
22544;DHT22;11438;52.044;8.716;2023-11-19T01:00:13;12.40;99.90
22544;DHT22;11438;52.044;8.716;2023-11-19T01:02:46;12.40;99.90
22544;DHT22;11438;52.044;8.716;2023-11-19T01:05:11;12.40;99.90
22544;DHT22;11438;52.044;8.716;2023-11-19T01:07:39;12.50;99.90
22544;DHT22;11438;52.044;8.716;2023-11-19T01:10:05;12.50;99.90
22544;DHT22;11438;52.044;8.716;2023-11-19T01:12:32;12.50;99.90
22544;DHT22;11438;52.044;8.716;2023-11-19T01:14:58;12.50;99.90
22544;DHT22;11438;52.044;8.716;2023-11-19T01:17:23;12.60;99.90
22544;DHT22;11438;52.044;8.716;2023-11-19T01:19:49;12.60;99.90
22544;DHT22;11438;52.044;8.716;2023-11-19T01:22:15;12.60;99.90
22544;DHT22;11438;52.044;8.716;2023-11-19T01:24:41;12.60;99.90
22544;DHT22;11438;52.044;8.716;2023-11-19T01:27:06;12.60;99.90
22544;DHT22;11438;52.044;8.716;2023-11-19T01:29:32;12.70;99.90
22544;DHT22;11438;52.044;8.716;2023-11-19T01:31:57;12.70;99.90
22544;DHT22;11438;52.044;8.716;2023-11-19T01:34:23;12.70;99.90
22544;DHT22;11438;52.044;8.716;2023-11-19T01:36:48;12.70;99.90
22544;DHT22;11438;52.044;8.716;2023-11-19T01:39:15;12.80;99.90
22544;DHT22;11438;52.044;8.716;2023-11-19T01:41:41;12.80;99.90
22544;DHT22;11438;52.044;8.716;2023-11-19T01:44:07;12.80;99.90
22544;DHT22;11438;52.044;8.716;2023-11-19T01:46:33;12.80;99.90
22544;DHT22;11438;52.044;8.716;2023-11-19T01:49:00;12.80;99.90
22544;DHT22;11438;52.044;8.716;2023-11-19T01:51:25;12.90;99.90
22544;DHT22;11438;52.044;8.716;2023-11-19T01:53:52;12.90;99.90
22544;DHT22;11438;52.044;8.716;2023-11-19T01:56:17;12.90;99.90
22544;DHT22;11438;52.044;8.716;2023-11-19T01:58:45;13.00;99.90
22544;DHT22;11438;52.044;8.716;2023-11-19T02:01:11;13.00;99.90
22544;DHT22;11438;52.044;8.716;2023-11-19T02:03:37;13.00;99.90
22544;DHT22;11438;52.044;8.716;2023-11-19T02:06:03;13.00;99.90
22544;DHT22;11438;52.044;8.716;2023-11-19T02:08:30;13.10;99.90
22544;DHT22;11438;52.044;8.716;2023-11-19T02:10:55;13.00;99.90
22544;DHT22;11438;52.044;8.716;2023-11-19T02:13:26;13.10;99.90
22544;DHT22;11438;52.044;8.716;2023-11-19T02:15:52;13.10;99.90
22544;DHT22;11438;52.044;8.716;2023-11-19T02:18:18;13.10;99.90
22544;DHT22;11438;52.044;8.716;2023-11-19T02:20:45;13.20;99.90
22544;DHT22;11438;52.044;8.716;2023-11-19T02:23:12;13.20;99.90
22544;DHT22;11438;52.044;8.716;2023-11-19T02:25:39;13.20;99.90
22544;DHT22;11438;52.044;8.716;2023-11-19T02:28:06;13.20;99.90
22544;DHT22;11438;52.044;8.716;2023-11-19T02:30:32;13.20;99.90
22544;DHT22;11438;52.044;8.716;2023-11-19T02:32:59;13.30;99.90
22544;DHT22;11438;52.044;8.716;2023-11-19T02:35:27;13.30;99.90
22544;DHT22;11438;52.044;8.716;2023-11-19T02:37:57;13.30;99.90
22544;DHT22;11438;52.044;8.716;2023-11-19T02:40:23;13.30;99.90
22544;DHT22;11438;52.044;8.716;2023-11-19T02:42:50;13.40;99.90
22544;DHT22;11438;52.044;8.716;2023-11-19T02:45:16;13.40;99.90
22544;DHT22;11438;52.044;8.716;2023-11-19T02:47:42;13.40;99.90
22544;DHT22;11438;52.044;8.716;2023-11-19T02:50:11;13.40;99.90
22544;DHT22;11438;52.044;8.716;2023-11-19T02:52:41;13.40;99.90
22544;DHT22;11438;52.044;8.716;2023-11-19T02:55:07;13.50;99.90
22544;DHT22;11438;52.044;8.716;2023-11-19T02:57:35;13.50;99.90
22544;DHT22;11438;52.044;8.716;2023-11-19T03:00:01;13.50;99.90
22544;DHT22;11438;52.044;8.716;2023-11-19T03:02:29;13.50;99.90
22544;DHT22;11438;52.044;8.716;2023-11-19T03:04:59;13.50;99.90
22544;DHT22;11438;52.044;8.716;2023-11-19T03:07:25;13.60;99.90
22544;DHT22;11438;52.044;8.716;2023-11-19T03:09:50;13.60;99.90
22544;DHT22;11438;52.044;8.716;2023-11-19T03:12:16;13.60;99.90
22544;DHT22;11438;52.044;8.716;2023-11-19T03:14:41;13.70;99.90
22544;DHT22;11438;52.044;8.716;2023-11-19T03:17:07;13.70;99.90
22544;DHT22;11438;52.044;8.716;2023-11-19T03:19:35;13.70;99.90
22544;DHT22;11438;52.044;8.716;2023-11-19T03:22:01;13.70;99.90
22544;DHT22;11438;52.044;8.716;2023-11-19T03:24:27;13.80;99.90
22544;DHT22;11438;52.044;8.716;2023-11-19T03:26:53;13.80;99.90
22544;DHT22;11438;52.044;8.716;2023-11-19T03:29:18;13.80;99.90
22544;DHT22;11438;52.044;8.716;2023-11-19T03:31:44;13.80;99.90
22544;DHT22;11438;52.044;8.716;2023-11-19T03:34:10;13.90;99.90
22544;DHT22;11438;52.044;8.716;2023-11-19T03:36:35;13.90;99.90
22544;DHT22;11438;52.044;8.716;2023-11-19T03:39:01;13.90;99.90
22544;DHT22;11438;52.044;8.716;2023-11-19T03:41:28;13.90;99.90
22544;DHT22;11438;52.044;8.716;2023-11-19T03:43:54;14.00;99.90
22544;DHT22;11438;52.044;8.716;2023-11-19T03:46:20;14.00;99.90
22544;DHT22;11438;52.044;8.716;2023-11-19T03:48:49;14.00;99.90
22544;DHT22;11438;52.044;8.716;2023-11-19T03:51:14;14.00;99.90
22544;DHT22;11438;52.044;8.716;2023-11-19T03:53:46;14.00;99.90
22544;DHT22;11438;52.044;8.716;2023-11-19T03:56:12;14.10;99.90
22544;DHT22;11438;52.044;8.716;2023-11-19T03:58:38;14.10;99.90
22544;DHT22;11438;52.044;8.716;2023-11-19T04:01:05;14.10;99.90
22544;DHT22;11438;52.044;8.716;2023-11-19T04:03:31;14.20;99.90
22544;DHT22;11438;52.044;8.716;2023-11-19T04:05:56;14.20;99.90
22544;DHT22;11438;52.044;8.716;2023-11-19T04:08:22;14.20;99.90
22544;DHT22;11438;52.044;8.716;2023-11-19T04:10:48;14.20;99.90
22544;DHT22;11438;52.044;8.716;2023-11-19T04:13:13;14.20;99.90
22544;DHT22;11438;52.044;8.716;2023-11-19T04:15:39;14.30;99.90
22544;DHT22;11438;52.044;8.716;2023-11-19T04:18:05;14.30;99.90
22544;DHT22;11438;52.044;8.716;2023-11-19T04:20:30;14.30;99.90
22544;DHT22;11438;52.044;8.716;2023-11-19T04:22:57;14.30;99.90
22544;DHT22;11438;52.044;8.716;2023-11-19T04:25:23;14.40;99.90
22544;DHT22;11438;52.044;8.716;2023-11-19T04:27:51;14.40;99.90
22544;DHT22;11438;52.044;8.716;2023-11-19T04:30:17;14.40;99.90
22544;DHT22;11438;52.044;8.716;2023-11-19T04:32:43;14.40;99.90
22544;DHT22;11438;52.044;8.716;2023-11-19T04:35:09;14.40;99.90
22544;DHT22;11438;52.044;8.716;2023-11-19T04:37:35;14.50;99.90
22544;DHT22;11438;52.044;8.716;2023-11-19T04:40:00;14.50;99.90
22544;DHT22;11438;52.044;8.716;2023-11-19T04:42:26;14.50;99.90
22544;DHT22;11438;52.044;8.716;2023-11-19T04:44:51;14.50;99.90
22544;DHT22;11438;52.044;8.716;2023-11-19T04:47:17;14.60;99.90
22544;DHT22;11438;52.044;8.716;2023-11-19T04:49:43;14.60;99.90
22544;DHT22;11438;52.044;8.716;2023-11-19T04:52:08;14.60;99.90
22544;DHT22;11438;52.044;8.716;2023-11-19T04:54:34;14.60;99.90
22544;DHT22;11438;52.044;8.716;2023-11-19T04:57:00;14.60;99.90
22544;DHT22;11438;52.044;8.716;2023-11-19T04:59:25;14.70;99.90
22544;DHT22;11438;52.044;8.716;2023-11-19T05:01:52;14.60;99.90
22544;DHT22;11438;52.044;8.716;2023-11-19T05:04:18;14.70;99.90
22544;DHT22;11438;52.044;8.716;2023-11-19T05:06:44;14.70;99.90
22544;DHT22;11438;52.044;8.716;2023-11-19T05:09:09;14.70;99.90
22544;DHT22;11438;52.044;8.716;2023-11-19T05:11:37;14.70;99.90
22544;DHT22;11438;52.044;8.716;2023-11-19T05:14:04;14.80;99.90
22544;DHT22;11438;52.044;8.716;2023-11-19T05:16:30;14.80;99.90
22544;DHT22;11438;52.044;8.716;2023-11-19T05:18:56;14.80;99.90
22544;DHT22;11438;52.044;8.716;2023-11-19T05:21:21;14.80;99.90
22544;DHT22;11438;52.044;8.716;2023-11-19T05:23:47;14.80;99.90
22544;DHT22;11438;52.044;8.716;2023-11-19T05:26:24;14.80;99.90
22544;DHT22;11438;52.044;8.716;2023-11-19T05:28:50;14.80;99.90
22544;DHT22;11438;52.044;8.716;2023-11-19T05:31:17;14.80;99.90
22544;DHT22;11438;52.044;8.716;2023-11-19T05:33:43;14.80;99.90
22544;DHT22;11438;52.044;8.716;2023-11-19T05:36:08;14.80;99.90
22544;DHT22;11438;52.044;8.716;2023-11-19T05:38:36;14.80;99.90
22544;DHT22;11438;52.044;8.716;2023-11-19T05:41:02;14.80;99.90
22544;DHT22;11438;52.044;8.716;2023-11-19T05:43:28;14.80;99.90
22544;DHT22;11438;52.044;8.716;2023-11-19T05:45:53;14.80;99.90
22544;DHT22;11438;52.044;8.716;2023-11-19T05:48:18;14.80;99.90
22544;DHT22;11438;52.044;8.716;2023-11-19T05:50:44;14.80;99.90
22544;DHT22;11438;52.044;8.716;2023-11-19T05:53:10;14.80;99.90
22544;DHT22;11438;52.044;8.716;2023-11-19T05:55:39;14.80;99.90
22544;DHT22;11438;52.044;8.716;2023-11-19T05:58:12;14.80;99.90
22544;DHT22;11438;52.044;8.716;2023-11-19T06:00:38;14.80;99.90
22544;DHT22;11438;52.044;8.716;2023-11-19T06:03:04;14.80;99.90
22544;DHT22;11438;52.044;8.716;2023-11-19T06:05:30;14.80;99.90
22544;DHT22;11438;52.044;8.716;2023-11-19T06:07:55;14.80;99.90
22544;DHT22;11438;52.044;8.716;2023-11-19T06:10:23;14.80;99.90
22544;DHT22;11438;52.044;8.716;2023-11-19T06:12:54;14.80;99.90
22544;DHT22;11438;52.044;8.716;2023-11-19T06:15:22;14.80;99.90
22544;DHT22;11438;52.044;8.716;2023-11-19T06:17:48;14.80;99.90
22544;DHT22;11438;52.044;8.716;2023-11-19T06:20:14;14.70;99.90
22544;DHT22;11438;52.044;8.716;2023-11-19T06:22:40;14.80;99.90
22544;DHT22;11438;52.044;8.716;2023-11-19T06:25:07;14.80;99.90
22544;DHT22;11438;52.044;8.716;2023-11-19T06:27:33;14.80;99.90
22544;DHT22;11438;52.044;8.716;2023-11-19T06:29:59;14.80;99.90
22544;DHT22;11438;52.044;8.716;2023-11-19T06:32:25;14.80;99.90
22544;DHT22;11438;52.044;8.716;2023-11-19T06:34:50;14.80;99.90
22544;DHT22;11438;52.044;8.716;2023-11-19T06:37:16;14.80;99.90
22544;DHT22;11438;52.044;8.716;2023-11-19T06:39:41;14.70;99.90
22544;DHT22;11438;52.044;8.716;2023-11-19T06:42:07;14.80;99.90
22544;DHT22;11438;52.044;8.716;2023-11-19T06:44:32;14.70;99.90
22544;DHT22;11438;52.044;8.716;2023-11-19T06:46:58;14.80;99.90
22544;DHT22;11438;52.044;8.716;2023-11-19T06:49:23;14.70;99.90
22544;DHT22;11438;52.044;8.716;2023-11-19T06:51:50;14.70;99.90
22544;DHT22;11438;52.044;8.716;2023-11-19T06:54:15;14.70;99.90
22544;DHT22;11438;52.044;8.716;2023-11-19T06:56:41;14.70;99.90
22544;DHT22;11438;52.044;8.716;2023-11-19T06:59:07;14.70;99.90
22544;DHT22;11438;52.044;8.716;2023-11-19T07:01:36;14.80;99.90
22544;DHT22;11438;52.044;8.716;2023-11-19T07:04:02;14.80;99.90
22544;DHT22;11438;52.044;8.716;2023-11-19T07:06:35;14.80;99.90
22544;DHT22;11438;52.044;8.716;2023-11-19T07:09:02;14.80;99.90
22544;DHT22;11438;52.044;8.716;2023-11-19T07:11:38;14.80;99.90
22544;DHT22;11438;52.044;8.716;2023-11-19T07:14:05;14.80;99.90
22544;DHT22;11438;52.044;8.716;2023-11-19T07:16:35;14.80;99.90
22544;DHT22;11438;52.044;8.716;2023-11-19T07:19:02;14.80;99.90
22544;DHT22;11438;52.044;8.716;2023-11-19T07:21:28;14.80;99.90
22544;DHT22;11438;52.044;8.716;2023-11-19T07:23:57;14.80;99.90
22544;DHT22;11438;52.044;8.716;2023-11-19T07:26:23;14.80;99.90
22544;DHT22;11438;52.044;8.716;2023-11-19T07:28:49;14.80;99.90
22544;DHT22;11438;52.044;8.716;2023-11-19T07:31:15;14.80;99.90
22544;DHT22;11438;52.044;8.716;2023-11-19T07:33:41;14.80;99.90
22544;DHT22;11438;52.044;8.716;2023-11-19T07:36:10;14.80;99.90
22544;DHT22;11438;52.044;8.716;2023-11-19T07:38:36;14.90;99.90
22544;DHT22;11438;52.044;8.716;2023-11-19T07:41:02;14.90;99.90
22544;DHT22;11438;52.044;8.716;2023-11-19T07:43:28;14.90;99.90
22544;DHT22;11438;52.044;8.716;2023-11-19T07:45:53;14.90;99.90
22544;DHT22;11438;52.044;8.716;2023-11-19T07:48:19;14.90;99.90
22544;DHT22;11438;52.044;8.716;2023-11-19T07:50:49;14.90;99.90
22544;DHT22;11438;52.044;8.716;2023-11-19T07:53:16;14.90;99.90
22544;DHT22;11438;52.044;8.716;2023-11-19T07:55:41;14.90;99.90
22544;DHT22;11438;52.044;8.716;2023-11-19T07:58:07;14.90;99.90
22544;DHT22;11438;52.044;8.716;2023-11-19T08:00:33;14.90;99.90
22544;DHT22;11438;52.044;8.716;2023-11-19T08:02:58;14.90;99.90
22544;DHT22;11438;52.044;8.716;2023-11-19T08:05:24;15.00;99.90
22544;DHT22;11438;52.044;8.716;2023-11-19T08:07:50;15.00;99.90
22544;DHT22;11438;52.044;8.716;2023-11-19T08:10:18;15.00;99.90
22544;DHT22;11438;52.044;8.716;2023-11-19T08:12:44;15.00;99.90
22544;DHT22;11438;52.044;8.716;2023-11-19T08:15:10;15.00;99.90
22544;DHT22;11438;52.044;8.716;2023-11-19T08:17:36;15.00;99.90
22544;DHT22;11438;52.044;8.716;2023-11-19T08:20:02;15.00;99.90
22544;DHT22;11438;52.044;8.716;2023-11-19T08:22:28;15.00;99.90
22544;DHT22;11438;52.044;8.716;2023-11-19T08:24:53;15.00;99.90
22544;DHT22;11438;52.044;8.716;2023-11-19T08:27:19;14.90;99.90
22544;DHT22;11438;52.044;8.716;2023-11-19T08:29:54;14.90;99.90
22544;DHT22;11438;52.044;8.716;2023-11-19T08:32:26;15.00;99.90
22544;DHT22;11438;52.044;8.716;2023-11-19T08:34:53;15.00;99.90
22544;DHT22;11438;52.044;8.716;2023-11-19T08:37:18;14.90;99.90
22544;DHT22;11438;52.044;8.716;2023-11-19T08:39:47;14.90;99.90
22544;DHT22;11438;52.044;8.716;2023-11-19T08:42:13;15.00;99.90
22544;DHT22;11438;52.044;8.716;2023-11-19T08:44:38;15.00;99.90
22544;DHT22;11438;52.044;8.716;2023-11-19T08:47:04;15.00;99.90
22544;DHT22;11438;52.044;8.716;2023-11-19T08:49:30;15.00;99.90
22544;DHT22;11438;52.044;8.716;2023-11-19T08:51:55;15.00;99.90
22544;DHT22;11438;52.044;8.716;2023-11-19T08:54:21;15.10;99.90
22544;DHT22;11438;52.044;8.716;2023-11-19T08:56:48;15.10;99.90
22544;DHT22;11438;52.044;8.716;2023-11-19T08:59:13;15.10;99.90
22544;DHT22;11438;52.044;8.716;2023-11-19T09:01:40;15.20;99.90
22544;DHT22;11438;52.044;8.716;2023-11-19T09:04:06;15.20;99.90
22544;DHT22;11438;52.044;8.716;2023-11-19T09:06:32;15.20;99.90
22544;DHT22;11438;52.044;8.716;2023-11-19T09:08:57;15.20;99.90
22544;DHT22;11438;52.044;8.716;2023-11-19T09:11:26;15.20;99.90
22544;DHT22;11438;52.044;8.716;2023-11-19T09:13:52;15.20;99.90
22544;DHT22;11438;52.044;8.716;2023-11-19T09:16:18;15.30;99.90
22544;DHT22;11438;52.044;8.716;2023-11-19T09:18:43;15.30;99.90
22544;DHT22;11438;52.044;8.716;2023-11-19T09:21:11;15.30;99.90
22544;DHT22;11438;52.044;8.716;2023-11-19T09:23:36;15.30;99.90
22544;DHT22;11438;52.044;8.716;2023-11-19T09:26:05;15.30;99.90
22544;DHT22;11438;52.044;8.716;2023-11-19T09:28:31;15.40;99.90
22544;DHT22;11438;52.044;8.716;2023-11-19T09:30:57;15.40;99.90
22544;DHT22;11438;52.044;8.716;2023-11-19T09:33:23;15.40;99.90
22544;DHT22;11438;52.044;8.716;2023-11-19T09:35:48;15.40;99.90
22544;DHT22;11438;52.044;8.716;2023-11-19T09:38:15;15.50;99.90
22544;DHT22;11438;52.044;8.716;2023-11-19T09:40:40;15.40;99.90
22544;DHT22;11438;52.044;8.716;2023-11-19T09:43:07;15.40;99.90
22544;DHT22;11438;52.044;8.716;2023-11-19T09:45:58;15.40;99.90
22544;DHT22;11438;52.044;8.716;2023-11-19T09:48:25;15.50;99.90
22544;DHT22;11438;52.044;8.716;2023-11-19T09:50:52;15.40;99.90
22544;DHT22;11438;52.044;8.716;2023-11-19T09:53:18;15.50;99.90
22544;DHT22;11438;52.044;8.716;2023-11-19T09:55:45;15.50;99.90
22544;DHT22;11438;52.044;8.716;2023-11-19T09:58:12;15.50;99.90
22544;DHT22;11438;52.044;8.716;2023-11-19T10:00:40;15.50;99.90
22544;DHT22;11438;52.044;8.716;2023-11-19T10:03:07;15.60;99.90
22544;DHT22;11438;52.044;8.716;2023-11-19T10:05:34;15.60;99.90
22544;DHT22;11438;52.044;8.716;2023-11-19T10:08:01;15.70;99.90
22544;DHT22;11438;52.044;8.716;2023-11-19T10:10:28;15.70;99.90
22544;DHT22;11438;52.044;8.716;2023-11-19T10:12:55;15.70;99.90
22544;DHT22;11438;52.044;8.716;2023-11-19T10:15:21;15.80;99.90
22544;DHT22;11438;52.044;8.716;2023-11-19T10:17:48;15.80;99.90
22544;DHT22;11438;52.044;8.716;2023-11-19T10:20:13;15.90;99.90
22544;DHT22;11438;52.044;8.716;2023-11-19T10:22:39;15.90;99.90
22544;DHT22;11438;52.044;8.716;2023-11-19T10:25:10;15.90;99.90
22544;DHT22;11438;52.044;8.716;2023-11-19T10:27:46;15.90;99.90
22544;DHT22;11438;52.044;8.716;2023-11-19T10:30:12;16.00;99.90
22544;DHT22;11438;52.044;8.716;2023-11-19T10:32:37;16.00;99.90
22544;DHT22;11438;52.044;8.716;2023-11-19T10:35:06;16.00;99.90
22544;DHT22;11438;52.044;8.716;2023-11-19T10:37:32;16.00;99.90
22544;DHT22;11438;52.044;8.716;2023-11-19T10:40:00;16.10;99.90
22544;DHT22;11438;52.044;8.716;2023-11-19T10:42:26;16.10;99.90
22544;DHT22;11438;52.044;8.716;2023-11-19T10:44:51;16.10;99.90
22544;DHT22;11438;52.044;8.716;2023-11-19T10:47:19;16.10;99.90
22544;DHT22;11438;52.044;8.716;2023-11-19T10:49:47;16.20;99.90
22544;DHT22;11438;52.044;8.716;2023-11-19T10:52:19;16.30;99.90
22544;DHT22;11438;52.044;8.716;2023-11-19T10:54:49;16.30;99.90
22544;DHT22;11438;52.044;8.716;2023-11-19T10:57:20;16.30;99.90
22544;DHT22;11438;52.044;8.716;2023-11-19T10:59:47;16.40;99.90
22544;DHT22;11438;52.044;8.716;2023-11-19T11:02:18;16.40;99.90
22544;DHT22;11438;52.044;8.716;2023-11-19T11:04:45;16.40;99.90
22544;DHT22;11438;52.044;8.716;2023-11-19T11:07:14;16.40;99.90
22544;DHT22;11438;52.044;8.716;2023-11-19T11:09:41;16.50;99.90
22544;DHT22;11438;52.044;8.716;2023-11-19T11:12:08;16.50;99.90
22544;DHT22;11438;52.044;8.716;2023-11-19T11:14:37;16.50;99.90
22544;DHT22;11438;52.044;8.716;2023-11-19T11:17:03;16.50;99.90
22544;DHT22;11438;52.044;8.716;2023-11-19T11:19:33;16.50;99.90
22544;DHT22;11438;52.044;8.716;2023-11-19T11:21:59;16.50;99.90
22544;DHT22;11438;52.044;8.716;2023-11-19T11:24:58;16.50;99.90
22544;DHT22;11438;52.044;8.716;2023-11-19T11:28:13;16.60;99.90
22544;DHT22;11438;52.044;8.716;2023-11-19T11:34:00;16.50;99.90
22544;DHT22;11438;52.044;8.716;2023-11-19T11:36:31;16.50;99.90
22544;DHT22;11438;52.044;8.716;2023-11-19T11:39:03;16.50;99.90
22544;DHT22;11438;52.044;8.716;2023-11-19T11:41:33;16.50;99.90
22544;DHT22;11438;52.044;8.716;2023-11-19T11:43:58;16.50;99.90
22544;DHT22;11438;52.044;8.716;2023-11-19T11:49:02;16.30;99.90
22544;DHT22;11438;52.044;8.716;2023-11-19T11:54:31;16.20;99.90
22544;DHT22;11438;52.044;8.716;2023-11-19T11:57:08;16.20;99.90
22544;DHT22;11438;52.044;8.716;2023-11-19T12:02:04;16.20;99.90
22544;DHT22;11438;52.044;8.716;2023-11-19T12:04:30;16.10;99.90
22544;DHT22;11438;52.044;8.716;2023-11-19T12:07:15;16.10;99.90
22544;DHT22;11438;52.044;8.716;2023-11-19T12:09:41;16.10;99.90
22544;DHT22;11438;52.044;8.716;2023-11-19T12:19:59;16.00;99.90
22544;DHT22;11438;52.044;8.716;2023-11-19T12:22:25;15.90;99.90
22544;DHT22;11438;52.044;8.716;2023-11-19T12:24:55;15.90;99.90
22544;DHT22;11438;52.044;8.716;2023-11-19T12:27:21;15.80;99.90
22544;DHT22;11438;52.044;8.716;2023-11-19T12:29:51;15.80;99.90
22544;DHT22;11438;52.044;8.716;2023-11-19T12:32:17;15.80;99.90
22544;DHT22;11438;52.044;8.716;2023-11-19T12:34:42;15.80;99.90
22544;DHT22;11438;52.044;8.716;2023-11-19T12:37:09;15.80;99.90
22544;DHT22;11438;52.044;8.716;2023-11-19T12:39:35;15.80;99.90
22544;DHT22;11438;52.044;8.716;2023-11-19T12:42:01;15.80;99.90
22544;DHT22;11438;52.044;8.716;2023-11-19T12:44:26;15.80;99.90
22544;DHT22;11438;52.044;8.716;2023-11-19T12:47:02;15.90;99.90
22544;DHT22;11438;52.044;8.716;2023-11-19T12:49:28;15.90;99.90
22544;DHT22;11438;52.044;8.716;2023-11-19T12:51:54;15.90;99.90
22544;DHT22;11438;52.044;8.716;2023-11-19T12:54:20;15.90;99.90
22544;DHT22;11438;52.044;8.716;2023-11-19T12:56:52;16.00;99.90
22544;DHT22;11438;52.044;8.716;2023-11-19T12:59:18;16.00;99.90
22544;DHT22;11438;52.044;8.716;2023-11-19T13:01:59;16.00;99.90
22544;DHT22;11438;52.044;8.716;2023-11-19T13:04:29;16.00;99.90
22544;DHT22;11438;52.044;8.716;2023-11-19T13:06:57;16.00;99.90
22544;DHT22;11438;52.044;8.716;2023-11-19T13:09:29;16.10;99.90
22544;DHT22;11438;52.044;8.716;2023-11-19T13:11:55;16.10;99.90
22544;DHT22;11438;52.044;8.716;2023-11-19T13:14:22;16.10;99.90
22544;DHT22;11438;52.044;8.716;2023-11-19T13:16:47;16.10;99.90
22544;DHT22;11438;52.044;8.716;2023-11-19T13:19:14;16.10;99.90
22544;DHT22;11438;52.044;8.716;2023-11-19T13:21:41;16.20;99.90
22544;DHT22;11438;52.044;8.716;2023-11-19T13:24:07;16.20;99.90
22544;DHT22;11438;52.044;8.716;2023-11-19T13:26:33;16.20;99.90
22544;DHT22;11438;52.044;8.716;2023-11-19T13:29:00;16.20;99.90
22544;DHT22;11438;52.044;8.716;2023-11-19T13:31:26;16.20;99.90
22544;DHT22;11438;52.044;8.716;2023-11-19T13:33:51;16.20;99.90
22544;DHT22;11438;52.044;8.716;2023-11-19T13:36:17;16.20;99.90
22544;DHT22;11438;52.044;8.716;2023-11-19T13:38:42;16.20;99.90
22544;DHT22;11438;52.044;8.716;2023-11-19T13:41:09;16.20;99.90
22544;DHT22;11438;52.044;8.716;2023-11-19T13:43:36;16.20;99.90
22544;DHT22;11438;52.044;8.716;2023-11-19T13:46:03;16.20;99.90
22544;DHT22;11438;52.044;8.716;2023-11-19T13:48:29;16.20;99.90
22544;DHT22;11438;52.044;8.716;2023-11-19T13:50:55;16.20;99.90
22544;DHT22;11438;52.044;8.716;2023-11-19T13:53:21;16.30;99.90
22544;DHT22;11438;52.044;8.716;2023-11-19T13:55:46;16.30;99.90
22544;DHT22;11438;52.044;8.716;2023-11-19T13:58:13;16.30;99.90
22544;DHT22;11438;52.044;8.716;2023-11-19T14:00:38;16.30;99.90
22544;DHT22;11438;52.044;8.716;2023-11-19T14:03:04;16.30;99.90
22544;DHT22;11438;52.044;8.716;2023-11-19T14:05:30;16.30;99.90
22544;DHT22;11438;52.044;8.716;2023-11-19T14:07:56;16.30;99.90
22544;DHT22;11438;52.044;8.716;2023-11-19T14:10:23;16.20;99.90
22544;DHT22;11438;52.044;8.716;2023-11-19T14:12:48;16.20;99.90
22544;DHT22;11438;52.044;8.716;2023-11-19T14:15:15;16.20;99.90
22544;DHT22;11438;52.044;8.716;2023-11-19T14:17:43;16.20;99.90
22544;DHT22;11438;52.044;8.716;2023-11-19T14:20:09;16.20;99.90
22544;DHT22;11438;52.044;8.716;2023-11-19T14:22:42;16.10;99.90
22544;DHT22;11438;52.044;8.716;2023-11-19T14:25:08;16.10;99.90
22544;DHT22;11438;52.044;8.716;2023-11-19T14:27:39;16.00;99.90
22544;DHT22;11438;52.044;8.716;2023-11-19T14:30:10;16.00;99.90
22544;DHT22;11438;52.044;8.716;2023-11-19T14:32:40;16.10;99.90
22544;DHT22;11438;52.044;8.716;2023-11-19T14:35:06;16.00;99.90
22544;DHT22;11438;52.044;8.716;2023-11-19T14:37:33;16.00;99.90
22544;DHT22;11438;52.044;8.716;2023-11-19T14:39:59;16.00;99.90
22544;DHT22;11438;52.044;8.716;2023-11-19T14:42:25;16.10;99.90
22544;DHT22;11438;52.044;8.716;2023-11-19T14:44:51;16.10;99.90
22544;DHT22;11438;52.044;8.716;2023-11-19T14:47:21;16.10;99.90
22544;DHT22;11438;52.044;8.716;2023-11-19T14:49:46;16.10;99.90
22544;DHT22;11438;52.044;8.716;2023-11-19T14:52:12;16.10;99.90
22544;DHT22;11438;52.044;8.716;2023-11-19T14:54:38;16.10;99.90
22544;DHT22;11438;52.044;8.716;2023-11-19T14:57:04;16.10;99.90
22544;DHT22;11438;52.044;8.716;2023-11-19T14:59:30;16.10;99.90
22544;DHT22;11438;52.044;8.716;2023-11-19T15:01:56;16.10;99.90
22544;DHT22;11438;52.044;8.716;2023-11-19T15:04:22;16.10;99.90
22544;DHT22;11438;52.044;8.716;2023-11-19T15:06:48;16.10;99.90
22544;DHT22;11438;52.044;8.716;2023-11-19T15:09:13;16.10;99.90
22544;DHT22;11438;52.044;8.716;2023-11-19T15:11:43;16.10;99.90
22544;DHT22;11438;52.044;8.716;2023-11-19T15:14:08;16.10;99.90
22544;DHT22;11438;52.044;8.716;2023-11-19T15:16:34;16.10;99.90
22544;DHT22;11438;52.044;8.716;2023-11-19T15:19:00;16.00;99.90
22544;DHT22;11438;52.044;8.716;2023-11-19T15:21:29;16.00;99.90
22544;DHT22;11438;52.044;8.716;2023-11-19T15:23:57;16.00;99.90
22544;DHT22;11438;52.044;8.716;2023-11-19T15:26:23;16.00;99.90
22544;DHT22;11438;52.044;8.716;2023-11-19T15:28:48;16.00;99.90
22544;DHT22;11438;52.044;8.716;2023-11-19T15:31:14;16.00;99.90
22544;DHT22;11438;52.044;8.716;2023-11-19T15:33:41;15.90;99.90
22544;DHT22;11438;52.044;8.716;2023-11-19T15:36:07;15.90;99.90
22544;DHT22;11438;52.044;8.716;2023-11-19T15:38:34;15.90;99.90
22544;DHT22;11438;52.044;8.716;2023-11-19T15:41:00;15.90;99.90
22544;DHT22;11438;52.044;8.716;2023-11-19T15:43:25;15.90;99.90
22544;DHT22;11438;52.044;8.716;2023-11-19T15:45:51;15.90;99.90
22544;DHT22;11438;52.044;8.716;2023-11-19T15:48:16;15.80;99.90